Time;durP1;ratioP1;P1;durP2;ratioP2;P2;SDS_P1;SDS_P2;PMS_P1;PMS_P2;Temp;Humidity;BMP_temperature;BMP_pressure;BME280_temperature;BME280_humidity;BME280_pressure;Samples;Min_cycle;Max_cycle;Signal;HPM_P1;HPM_P2
2021/03/03 00:00:43;;;;;;;7.60;6.07;;;4.50;77.50;;;;;;5033685;28;20025;-56
2021/03/03 00:03:09;;;;;;;7.22;5.63;;;4.50;77.50;;;;;;5018523;28;20485;-52
2021/03/03 00:05:35;;;;;;;8.43;5.43;;;4.50;77.50;;;;;;5014858;28;20026;-56
2021/03/03 00:08:01;;;;;;;8.55;5.20;;;4.50;77.70;;;;;;5029290;28;20030;-57
2021/03/03 00:10:26;;;;;;;8.10;5.57;;;4.50;77.80;;;;;;5032176;28;20560;-55
2021/03/03 00:12:52;;;;;;;8.07;5.55;;;4.50;77.80;;;;;;5033216;28;20097;-53
2021/03/03 00:15:18;;;;;;;8.32;6.07;;;4.50;77.90;;;;;;5029034;28;20496;-53
2021/03/03 00:17:45;;;;;;;9.68;5.35;;;4.60;77.90;;;;;;5023912;28;20028;-53
2021/03/03 00:20:11;;;;;;;8.95;5.57;;;4.60;78.10;;;;;;5028342;28;20112;-56
2021/03/03 00:22:37;;;;;;;8.88;4.95;;;4.60;78.00;;;;;;5025675;28;20049;-55
2021/03/03 00:25:03;;;;;;;7.50;5.00;;;4.70;78.00;;;;;;5032024;28;20033;-54
2021/03/03 00:27:29;;;;;;;8.63;5.57;;;4.70;78.00;;;;;;5020926;28;20507;-55
2021/03/03 00:29:55;;;;;;;7.93;4.95;;;4.70;77.80;;;;;;5033125;28;20029;-55
2021/03/03 00:32:21;;;;;;;6.60;5.22;;;4.70;77.80;;;;;;5029776;28;20029;-53
2021/03/03 00:34:46;;;;;;;8.43;5.47;;;4.80;77.80;;;;;;5028697;28;20025;-56
2021/03/03 00:37:12;;;;;;;6.97;5.18;;;4.80;77.70;;;;;;5033157;28;20025;-56
2021/03/03 00:39:38;;;;;;;7.38;5.15;;;4.70;77.60;;;;;;5033283;28;20376;-53
2021/03/03 00:42:04;;;;;;;8.20;5.30;;;4.80;77.50;;;;;;5032752;28;20025;-53
2021/03/03 00:44:30;;;;;;;7.22;4.88;;;4.80;77.40;;;;;;5032926;28;20030;-57
2021/03/03 00:46:55;;;;;;;8.65;5.38;;;4.80;77.50;;;;;;5032862;28;20040;-53
2021/03/03 00:49:21;;;;;;;7.80;5.50;;;4.70;77.40;;;;;;5032736;28;20053;-55
2021/03/03 00:51:47;;;;;;;7.97;5.22;;;4.70;77.30;;;;;;5032718;28;20083;-53
2021/03/03 00:54:12;;;;;;;9.80;5.50;;;4.70;77.40;;;;;;5021607;28;20021;-56
2021/03/03 00:56:38;;;;;;;7.70;5.07;;;4.70;77.50;;;;;;5024374;28;20087;-54
2021/03/03 00:59:04;;;;;;;6.65;4.65;;;4.70;77.50;;;;;;5021198;28;20033;-56
2021/03/03 01:01:30;;;;;;;7.13;4.93;;;4.70;77.50;;;;;;5022534;28;20021;-53
2021/03/03 01:03:55;;;;;;;8.35;4.90;;;4.70;77.60;;;;;;5028894;28;20101;-55
2021/03/03 01:06:21;;;;;;;8.52;5.10;;;4.70;77.50;;;;;;5031094;28;20060;-53
2021/03/03 01:08:47;;;;;;;8.25;4.97;;;4.70;77.50;;;;;;5037124;28;20037;-53
2021/03/03 01:11:13;;;;;;;7.13;4.63;;;4.60;77.40;;;;;;5036960;28;20052;-56
2021/03/03 01:13:38;;;;;;;6.90;4.85;;;4.60;77.50;;;;;;5036578;28;20500;-54
2021/03/03 01:16:04;;;;;;;7.20;4.90;;;4.60;77.50;;;;;;5023924;28;20407;-57
2021/03/03 01:18:30;;;;;;;7.30;5.00;;;4.60;77.40;;;;;;5027224;28;20022;-56
2021/03/03 01:20:56;;;;;;;9.05;5.22;;;4.60;77.70;;;;;;5030493;28;20473;-57
2021/03/03 01:23:22;;;;;;;6.90;4.72;;;4.60;77.60;;;;;;5035330;28;20040;-54
2021/03/03 01:25:48;;;;;;;7.50;5.10;;;4.60;77.70;;;;;;5029383;28;20385;-55
2021/03/03 01:28:14;;;;;;;7.72;4.80;;;4.50;77.50;;;;;;5021416;28;20022;-53
2021/03/03 01:30:39;;;;;;;8.65;5.15;;;4.50;77.50;;;;;;5036585;28;20033;-55
2021/03/03 01:33:05;;;;;;;8.90;5.53;;;4.50;77.50;;;;;;5036342;28;20065;-56
2021/03/03 01:35:31;;;;;;;8.40;4.97;;;4.50;77.60;;;;;;5031479;28;20043;-56
2021/03/03 01:37:57;;;;;;;9.55;5.43;;;4.50;77.70;;;;;;5031383;28;20041;-56
2021/03/03 01:40:23;;;;;;;6.63;5.53;;;4.50;77.50;;;;;;5036297;28;20026;-55
2021/03/03 01:42:49;;;;;;;8.07;5.57;;;4.40;77.50;;;;;;5036296;28;20536;-52
2021/03/03 01:45:15;;;;;;;6.47;5.10;;;4.40;77.40;;;;;;5035150;28;20373;-52
2021/03/03 01:47:41;;;;;;;8.32;5.68;;;4.40;77.50;;;;;;5036138;28;20025;-54
2021/03/03 01:50:09;;;;;;;10.27;5.93;;;4.40;77.70;;;;;;5032166;28;20156;-55
2021/03/03 01:52:39;;;;;;;8.02;5.53;;;4.30;77.70;;;;;;5035440;28;20112;-54
2021/03/03 01:55:05;;;;;;;8.18;5.32;;;4.30;77.70;;;;;;5028143;28;20026;-53
2021/03/03 01:57:32;;;;;;;10.30;5.72;;;4.30;77.70;;;;;;5034976;28;20029;-53
2021/03/03 01:59:57;;;;;;;8.00;5.80;;;4.30;77.80;;;;;;5028338;28;20034;-55
2021/03/03 02:02:24;;;;;;;8.25;4.95;;;4.20;77.80;;;;;;5029903;28;20412;-55
2021/03/03 02:04:54;;;;;;;7.20;5.35;;;4.20;77.90;;;;;;5025057;28;20036;-53
2021/03/03 02:07:35;;;;;;;7.75;5.05;;;4.20;78.00;;;;;;5023175;28;20030;-53
2021/03/03 02:10:08;;;;;;;7.60;5.00;;;4.20;78.00;;;;;;5030689;28;20026;-55
2021/03/03 02:12:42;;;;;;;9.20;5.50;;;4.20;78.10;;;;;;5032538;28;20546;-56
2021/03/03 02:15:11;;;;;;;8.43;5.45;;;4.20;78.10;;;;;;5035970;28;20112;-57
2021/03/03 02:17:40;;;;;;;8.73;5.07;;;4.20;78.10;;;;;;5035395;28;20041;-53
2021/03/03 02:20:08;;;;;;;7.75;5.60;;;4.20;78.10;;;;;;5034300;28;20063;-54
2021/03/03 02:22:46;;;;;;;8.18;5.30;;;4.10;78.10;;;;;;5035101;28;20029;-56
2021/03/03 02:25:17;;;;;;;9.15;5.60;;;4.10;78.30;;;;;;5034246;28;20021;-56
2021/03/03 02:27:43;;;;;;;10.40;5.65;;;4.10;78.00;;;;;;5024837;28;20034;-54
2021/03/03 02:30:10;;;;;;;7.55;5.15;;;4.10;78.00;;;;;;5034391;28;20025;-56
2021/03/03 02:32:36;;;;;;;9.45;5.40;;;4.10;78.10;;;;;;5028045;28;20034;-53
2021/03/03 02:35:03;;;;;;;10.00;6.07;;;4.10;78.20;;;;;;5033165;28;20776;-55
2021/03/03 02:37:29;;;;;;;10.35;6.05;;;4.10;78.20;;;;;;5028412;28;20031;-56
2021/03/03 02:39:55;;;;;;;9.27;5.78;;;4.10;78.10;;;;;;5033771;28;20114;-56
2021/03/03 02:42:21;;;;;;;9.55;6.18;;;4.10;78.20;;;;;;5030770;28;20529;-55
2021/03/03 02:44:48;;;;;;;9.23;5.88;;;4.10;78.30;;;;;;5035321;28;20044;-54
2021/03/03 02:47:15;;;;;;;8.27;5.70;;;4.10;78.20;;;;;;5035206;28;20026;-56
2021/03/03 02:49:43;;;;;;;9.63;5.97;;;4.00;78.20;;;;;;5035029;28;20052;-56
2021/03/03 02:52:08;;;;;;;9.82;6.32;;;4.00;78.20;;;;;;5034781;28;20026;-54
2021/03/03 02:54:34;;;;;;;9.32;6.03;;;4.00;78.20;;;;;;5028144;28;20022;-56
2021/03/03 02:57:01;;;;;;;10.07;6.28;;;4.00;78.30;;;;;;5032370;28;20030;-54
2021/03/03 02:59:38;;;;;;;11.20;6.03;;;3.90;78.40;;;;;;5034986;28;20454;-53
2021/03/03 03:02:12;;;;;;;8.32;5.85;;;4.00;78.20;;;;;;5034404;28;20022;-53
2021/03/03 03:04:42;;;;;;;8.98;5.90;;;3.90;78.40;;;;;;5034596;28;20114;-56
2021/03/03 03:07:16;;;;;;;8.48;6.03;;;3.90;78.30;;;;;;5034390;28;20488;-57
2021/03/03 03:09:44;;;;;;;8.45;5.70;;;3.90;78.40;;;;;;5034006;28;20040;-57
2021/03/03 03:12:11;;;;;;;9.15;5.85;;;3.90;78.50;;;;;;5017474;28;20056;-56
2021/03/03 03:14:37;;;;;;;10.40;6.30;;;3.90;78.50;;;;;;5032720;28;20026;-56
2021/03/03 03:17:07;;;;;;;10.30;5.85;;;3.90;78.40;;;;;;5022106;28;20030;-56
2021/03/03 03:19:37;;;;;;;10.27;6.35;;;3.90;78.60;;;;;;5021408;28;20121;-55
2021/03/03 03:22:03;;;;;;;12.57;6.95;;;3.90;78.50;;;;;;5031049;28;20041;-56
2021/03/03 03:24:31;;;;;;;7.97;5.47;;;3.80;78.40;;;;;;5017285;28;20030;-55
2021/03/03 03:26:58;;;;;;;8.60;5.75;;;3.80;78.50;;;;;;5031271;28;20025;-55
2021/03/03 03:29:24;;;;;;;8.70;6.15;;;3.80;78.60;;;;;;5028718;28;20040;-55
2021/03/03 03:31:51;;;;;;;8.70;5.80;;;3.80;78.60;;;;;;5023537;28;20017;-56
2021/03/03 03:34:17;;;;;;;9.52;5.93;;;3.80;78.50;;;;;;5033875;28;20056;-57
2021/03/03 03:36:43;;;;;;;8.65;5.68;;;3.80;78.60;;;;;;5033840;28;20147;-53
2021/03/03 03:39:11;;;;;;;8.75;6.00;;;3.80;78.70;;;;;;5034023;28;20057;-56
2021/03/03 03:41:37;;;;;;;8.68;6.03;;;3.80;78.80;;;;;;5032247;28;20449;-55
2021/03/03 03:44:06;;;;;;;9.05;6.38;;;3.70;78.60;;;;;;5033894;28;20181;-54
2021/03/03 03:46:32;;;;;;;9.10;5.78;;;3.80;78.80;;;;;;5026957;28;20039;-54
2021/03/03 03:48:58;;;;;;;10.00;5.72;;;3.80;79.40;;;;;;5024539;28;20060;-54
2021/03/03 03:51:25;;;;;;;10.45;5.65;;;3.80;78.80;;;;;;5031931;28;20025;-53
2021/03/03 03:53:50;;;;;;;10.40;6.20;;;3.70;78.70;;;;;;5033331;28;20350;-53
2021/03/03 03:56:16;;;;;;;9.23;5.78;;;3.70;78.80;;;;;;5021593;28;20080;-55
2021/03/03 03:58:42;;;;;;;8.05;5.40;;;3.70;78.90;;;;;;5033255;28;20477;-56
2021/03/03 04:01:08;;;;;;;10.52;6.45;;;3.70;79.00;;;;;;5033697;28;20025;-56
2021/03/03 04:03:34;;;;;;;9.70;5.88;;;3.70;78.90;;;;;;5031196;28;20033;-55
2021/03/03 04:06:00;;;;;;;10.68;5.55;;;3.70;78.90;;;;;;5024053;28;20040;-55
2021/03/03 04:08:26;;;;;;;10.23;5.85;;;3.70;78.90;;;;;;5033080;28;20017;-55
2021/03/03 04:10:52;;;;;;;8.70;5.70;;;3.60;78.90;;;;;;5028006;28;20029;-53
2021/03/03 04:13:18;;;;;;;8.70;5.47;;;3.60;79.00;;;;;;5029704;28;20093;-53
2021/03/03 04:15:44;;;;;;;8.50;5.72;;;3.60;79.00;;;;;;5033226;28;20072;-55
2021/03/03 04:18:11;;;;;;;9.82;5.45;;;3.60;79.20;;;;;;5032990;28;20021;-55
2021/03/03 04:20:37;;;;;;;9.65;5.90;;;3.60;79.10;;;;;;5032904;28;20033;-53
2021/03/03 04:23:04;;;;;;;8.85;6.00;;;3.60;79.00;;;;;;5032970;28;20025;-53
2021/03/03 04:25:29;;;;;;;9.32;5.95;;;3.60;79.00;;;;;;5027140;28;20526;-52
2021/03/03 04:27:55;;;;;;;8.50;5.72;;;3.60;79.00;;;;;;5020346;28;20120;-56
2021/03/03 04:30:21;;;;;;;9.68;5.90;;;3.60;79.10;;;;;;5030239;28;20069;-54
2021/03/03 04:32:47;;;;;;;7.68;5.15;;;3.60;79.00;;;;;;5017859;28;20088;-54
2021/03/03 04:35:13;;;;;;;9.70;6.20;;;3.60;79.00;;;;;;5032812;28;20018;-56
2021/03/03 04:37:39;;;;;;;9.00;6.05;;;3.50;79.20;;;;;;5032717;28;20026;-55
2021/03/03 04:40:08;;;;;;;8.07;5.28;;;3.50;79.30;;;;;;5031696;28;20026;-57
2021/03/03 04:42:34;;;;;;;6.68;5.40;;;3.50;79.20;;;;;;5032582;28;20361;-56
2021/03/03 04:45:00;;;;;;;10.82;6.13;;;3.50;79.10;;;;;;5033181;28;20036;-55
2021/03/03 04:47:26;;;;;;;12.88;6.63;;;3.60;79.20;;;;;;5030121;28;20029;-53
2021/03/03 04:49:52;;;;;;;7.88;5.38;;;3.60;79.40;;;;;;5026628;28;20046;-54
2021/03/03 04:52:18;;;;;;;11.18;5.28;;;3.60;79.20;;;;;;5029971;28;20123;-55
2021/03/03 04:54:44;;;;;;;10.60;5.72;;;3.60;79.20;;;;;;5023383;28;20018;-57
2021/03/03 04:57:10;;;;;;;10.98;6.32;;;3.60;79.30;;;;;;5028803;28;20021;-55
2021/03/03 04:59:35;;;;;;;9.85;6.13;;;3.60;79.30;;;;;;5025259;28;20106;-56
2021/03/03 05:02:01;;;;;;;9.90;6.15;;;3.60;79.40;;;;;;5025149;28;20021;-55
2021/03/03 05:04:27;;;;;;;8.77;5.40;;;3.60;79.40;;;;;;5029658;28;20532;-57
2021/03/03 05:06:52;;;;;;;11.30;6.20;;;3.70;79.40;;;;;;5026376;28;20014;-55
2021/03/03 05:09:18;;;;;;;9.88;5.25;;;3.70;79.50;;;;;;5023381;28;20029;-56
2021/03/03 05:11:44;;;;;;;10.38;5.70;;;3.70;79.50;;;;;;5027775;28;20064;-56
2021/03/03 05:14:10;;;;;;;7.10;5.53;;;3.70;79.60;;;;;;5027565;28;20024;-53
2021/03/03 05:16:35;;;;;;;10.65;6.07;;;3.80;79.70;;;;;;5029804;28;20113;-57
2021/03/03 05:19:01;;;;;;;10.05;5.75;;;3.90;79.50;;;;;;5023739;28;20018;-53
2021/03/03 05:21:27;;;;;;;9.23;5.30;;;3.90;79.40;;;;;;5021862;28;20030;-55
2021/03/03 05:23:53;;;;;;;7.43;5.10;;;3.90;79.40;;;;;;5016261;28;20022;-56
2021/03/03 05:26:18;;;;;;;8.02;5.30;;;4.00;79.40;;;;;;5024744;28;20064;-55
2021/03/03 05:28:45;;;;;;;8.48;4.95;;;4.10;79.40;;;;;;5026025;28;20105;-56
2021/03/03 05:31:12;;;;;;;8.82;5.53;;;4.10;79.10;;;;;;5030949;28;20029;-53
2021/03/03 05:33:40;;;;;;;8.68;5.63;;;4.20;79.80;;;;;;5030837;28;20025;-57
2021/03/03 05:36:06;;;;;;;7.97;5.75;;;4.30;79.00;;;;;;5032606;28;20034;-56
2021/03/03 05:38:36;;;;;;;6.72;5.03;;;4.30;78.80;;;;;;5032779;28;20477;-56
2021/03/03 05:41:03;;;;;;;9.23;5.60;;;4.40;78.90;;;;;;5032789;28;20087;-57
2021/03/03 05:43:31;;;;;;;10.23;5.50;;;4.40;78.90;;;;;;5029680;28;20028;-56
2021/03/03 05:45:58;;;;;;;9.15;5.25;;;4.50;79.10;;;;;;5033924;28;20037;-55
2021/03/03 05:48:31;;;;;;;8.50;5.00;;;4.50;79.40;;;;;;5030865;28;20052;-57
2021/03/03 05:51:03;;;;;;;5.97;4.78;;;4.60;78.90;;;;;;5035982;28;20044;-57
2021/03/03 05:53:30;;;;;;;;;;;4.60;79.30;;;;;;5032941;28;20026;-55
2021/03/03 05:55:58;;;;;;;6.28;4.85;;;4.60;79.00;;;;;;5034432;28;19909;-55
2021/03/03 05:58:26;;;;;;;7.53;4.70;;;4.70;79.90;;;;;;5035686;28;20030;-53
2021/03/03 06:00:55;;;;;;;6.72;4.97;;;4.80;80.10;;;;;;5028538;28;20025;-56
2021/03/03 06:03:22;;;;;;;6.53;4.88;;;4.90;80.20;;;;;;5035691;28;20017;-55
2021/03/03 06:05:48;;;;;;;7.78;5.50;;;5.10;80.80;;;;;;5024488;28;20033;-54
2021/03/03 06:08:15;;;;;;;7.63;4.50;;;5.20;80.70;;;;;;5034228;28;20084;-54
2021/03/03 06:10:42;;;;;;;6.60;4.50;;;5.40;80.40;;;;;;5035536;28;20025;-54
2021/03/03 06:13:08;;;;;;;5.68;4.38;;;5.60;80.50;;;;;;5035426;28;20036;-56
2021/03/03 06:15:33;;;;;;;10.02;6.97;;;5.80;79.60;;;;;;5031569;28;20028;-55
2021/03/03 06:17:59;;;;;;;9.63;6.50;;;6.00;79.60;;;;;;5036681;28;20100;-56
2021/03/03 06:20:26;;;;;;;7.88;5.03;;;6.20;79.30;;;;;;5028042;28;20381;-55
2021/03/03 06:22:51;;;;;;;6.63;4.60;;;6.50;78.40;;;;;;5028914;28;20427;-56
2021/03/03 06:25:22;;;;;;;6.72;4.68;;;6.80;77.40;;;;;;5023718;28;20093;-56
2021/03/03 06:27:48;;;;;;;7.40;4.15;;;7.10;76.20;;;;;;5022372;28;20037;-57
2021/03/03 06:30:16;;;;;;;7.60;4.55;;;7.30;74.40;;;;;;5017475;28;20026;-57
2021/03/03 06:33:01;;;;;;;6.35;4.20;;;7.40;73.40;;;;;;5026099;28;20094;-56
2021/03/03 06:35:44;;;;;;;5.85;4.43;;;7.40;72.40;;;;;;5029716;28;20033;-56
2021/03/03 06:38:14;;;;;;;6.72;4.70;;;7.30;71.60;;;;;;5025302;28;20033;-55
2021/03/03 06:41:01;;;;;;;5.75;4.20;;;7.10;71.30;;;;;;5023202;28;20105;-54
2021/03/03 06:43:29;;;;;;;6.20;4.47;;;6.90;71.30;;;;;;5031669;28;20037;-55
2021/03/03 06:45:56;;;;;;;5.40;3.65;;;6.80;71.50;;;;;;5021405;28;20022;-54
2021/03/03 06:48:54;;;;;;;5.75;4.10;;;6.70;71.70;;;;;;5020471;28;20049;-56
2021/03/03 06:51:35;;;;;;;6.18;4.22;;;6.50;71.80;;;;;;5014350;28;20050;-53
2021/03/03 06:54:04;;;;;;;5.32;3.88;;;6.50;71.90;;;;;;5023528;28;20041;-54
2021/03/03 06:56:36;;;;;;;5.68;3.70;;;6.30;71.70;;;;;;5016498;28;20030;-56
2021/03/03 06:59:21;;;;;;;6.43;3.90;;;6.30;72.00;;;;;;5011913;28;20107;-56
2021/03/03 07:01:51;;;;;;;6.20;4.00;;;6.20;72.10;;;;;;5017894;28;20033;-53
2021/03/03 07:04:22;;;;;;;5.60;3.95;;;6.10;72.10;;;;;;5019917;28;20085;-57
2021/03/03 07:06:49;;;;;;;4.65;3.85;;;6.10;72.20;;;;;;5022083;28;20033;-55
2021/03/03 07:09:15;;;;;;;7.95;4.65;;;6.00;72.10;;;;;;5016361;28;20072;-57
2021/03/03 07:11:42;;;;;;;5.95;4.28;;;6.00;72.30;;;;;;5016431;28;20104;-58
2021/03/03 07:14:22;;;;;;;5.20;4.07;;;5.90;72.40;;;;;;5015870;28;20450;-57
2021/03/03 07:17:02;;;;;;;6.18;4.10;;;5.90;72.20;;;;;;5015624;28;20052;-56
2021/03/03 07:19:28;;;;;;;8.13;4.25;;;5.90;72.30;;;;;;5024143;28;20460;-57
2021/03/03 07:21:54;;;;;;;6.32;4.63;;;5.80;72.40;;;;;;5018614;28;20033;-56
2021/03/03 07:24:22;;;;;;;6.20;4.15;;;5.80;72.60;;;;;;5014227;28;20030;-56
2021/03/03 07:26:48;;;;;;;5.43;4.00;;;5.80;72.50;;;;;;5020189;28;20025;-57
2021/03/03 07:29:14;;;;;;;6.38;3.72;;;5.80;72.20;;;;;;5013935;28;20048;-57
2021/03/03 07:31:40;;;;;;;4.97;3.75;;;5.70;72.40;;;;;;5009306;28;20033;-56
2021/03/03 07:34:07;;;;;;;5.88;4.20;;;5.80;72.50;;;;;;5015144;28;20021;-56
2021/03/03 07:36:37;;;;;;;6.68;4.30;;;5.70;72.60;;;;;;5010317;28;20021;-57
2021/03/03 07:39:05;;;;;;;5.90;3.80;;;5.70;72.50;;;;;;5020283;28;20040;-55
2021/03/03 07:41:43;;;;;;;6.45;3.97;;;5.70;72.50;;;;;;5013824;28;20081;-56
2021/03/03 07:44:17;;;;;;;7.30;4.43;;;5.70;72.50;;;;;;5013085;28;20044;-56
2021/03/03 07:46:47;;;;;;;6.07;4.25;;;5.60;72.40;;;;;;5015078;28;20033;-58
2021/03/03 07:49:17;;;;;;;5.30;3.92;;;5.60;72.40;;;;;;5023260;28;20072;-58
2021/03/03 07:51:43;;;;;;;7.53;3.92;;;5.60;72.40;;;;;;5020739;28;20037;-56
2021/03/03 07:54:11;;;;;;;5.63;3.78;;;5.60;72.50;;;;;;5021744;28;20036;-58
2021/03/03 07:56:39;;;;;;;6.07;3.85;;;5.60;72.40;;;;;;5018822;28;20560;-58
2021/03/03 07:59:06;;;;;;;6.25;4.00;;;5.50;72.30;;;;;;5021615;28;20050;-58
2021/03/03 08:01:34;;;;;;;5.75;3.88;;;5.50;72.50;;;;;;5018046;28;20032;-57
2021/03/03 08:03:59;;;;;;;5.63;4.20;;;5.50;72.50;;;;;;5018162;28;20050;-58
2021/03/03 08:06:35;;;;;;;6.03;3.90;;;5.50;72.60;;;;;;5011899;28;20037;-57
2021/03/03 08:09:06;;;;;;;7.30;4.65;;;5.50;72.70;;;;;;5023529;28;20506;-57
2021/03/03 08:11:46;;;;;;;5.55;3.97;;;5.40;72.60;;;;;;5019761;28;20029;-56
2021/03/03 08:14:30;;;;;;;6.18;4.20;;;5.40;72.70;;;;;;5023457;28;20068;-54
2021/03/03 08:17:04;;;;;;;8.30;4.20;;;5.40;72.70;;;;;;5020738;28;20072;-57
2021/03/03 08:19:51;;;;;;;7.30;3.92;;;5.40;72.70;;;;;;5017522;28;20538;-53
2021/03/03 08:22:17;;;;;;;5.25;3.75;;;5.40;72.70;;;;;;5010755;28;20063;-57
2021/03/03 08:24:43;;;;;;;7.28;4.20;;;5.40;72.80;;;;;;5012480;28;20041;-56
2021/03/03 08:27:31;;;;;;;6.60;4.43;;;5.40;72.80;;;;;;5015129;28;20029;-58
2021/03/03 08:30:13;;;;;;;6.68;4.07;;;5.40;72.80;;;;;;5012473;28;20103;-57
2021/03/03 08:32:39;;;;;;;4.63;3.33;;;5.40;72.70;;;;;;5002122;28;20056;-57
2021/03/03 08:35:06;;;;;;;6.32;3.78;;;5.40;72.80;;;;;;5009769;28;20046;-58
2021/03/03 08:37:33;;;;;;;4.85;3.90;;;5.40;72.80;;;;;;5011574;28;20033;-58
2021/03/03 08:40:00;;;;;;;5.80;4.00;;;5.40;72.80;;;;;;5015726;28;20021;-57
2021/03/03 08:42:28;;;;;;;6.97;3.92;;;5.40;72.90;;;;;;5014982;28;20033;-57
2021/03/03 08:44:59;;;;;;;4.72;4.00;;;5.40;72.70;;;;;;5019106;28;20048;-56
2021/03/03 08:47:52;;;;;;;6.85;4.43;;;5.40;72.80;;;;;;5012171;28;20048;-58
2021/03/03 08:50:41;;;;;;;5.65;4.18;;;5.40;72.80;;;;;;5013381;28;20054;-56
2021/03/03 08:53:26;;;;;;;4.72;3.83;;;5.50;72.90;;;;;;5013353;28;20044;-58
2021/03/03 08:55:54;;;;;;;6.53;4.43;;;5.50;72.70;;;;;;5010997;28;20037;-57
2021/03/03 08:58:37;;;;;;;7.25;4.35;;;5.50;72.60;;;;;;5006473;28;20033;-58
2021/03/03 09:01:03;;;;;;;5.82;4.35;;;5.50;72.70;;;;;;5007545;28;20028;-58
2021/03/03 09:03:30;;;;;;;5.47;4.07;;;5.50;72.70;;;;;;5019579;28;20081;-58
2021/03/03 09:05:56;;;;;;;5.38;3.78;;;5.50;72.60;;;;;;5019776;28;20117;-58
2021/03/03 09:08:24;;;;;;;4.30;3.70;;;5.50;72.60;;;;;;5021702;28;20047;-58
2021/03/03 09:10:51;;;;;;;5.80;3.67;;;5.50;72.40;;;;;;5015466;28;20140;-58
2021/03/03 09:13:27;;;;;;;6.13;4.07;;;5.50;72.50;;;;;;5013052;28;20041;-58
2021/03/03 09:16:13;;;;;;;6.68;3.80;;;5.50;72.40;;;;;;5014193;28;20048;-57
2021/03/03 09:18:39;;;;;;;6.18;4.43;;;5.50;72.40;;;;;;5007416;28;20025;-57
2021/03/03 09:21:10;;;;;;;7.05;4.20;;;5.50;72.40;;;;;;5010762;28;20469;-57
2021/03/03 09:23:37;;;;;;;4.82;3.72;;;5.50;72.30;;;;;;5021063;28;20034;-58
2021/03/03 09:26:22;;;;;;;4.75;4.00;;;5.60;72.50;;;;;;5024355;28;20121;-57
2021/03/03 09:28:47;;;;;;;6.80;4.40;;;5.60;72.30;;;;;;5017257;28;20086;-58
2021/03/03 09:31:38;;;;;;;5.90;4.43;;;5.60;72.30;;;;;;5019438;28;20142;-57
2021/03/03 09:34:04;;;;;;;6.13;4.40;;;5.60;72.10;;;;;;5019057;28;20032;-58
2021/03/03 09:36:30;;;;;;;6.10;3.90;;;5.60;72.20;;;;;;4999568;28;20030;-57
2021/03/03 09:39:00;;;;;;;5.60;4.13;;;5.60;72.30;;;;;;5009046;28;20032;-58
2021/03/03 09:41:27;;;;;;;5.55;3.88;;;5.60;72.20;;;;;;5012340;28;20906;-58
2021/03/03 09:44:05;;;;;;;5.85;4.20;;;5.70;72.30;;;;;;5012458;28;20150;-57
2021/03/03 09:46:57;;;;;;;8.13;3.90;;;5.70;72.20;;;;;;5016798;28;20030;-58
2021/03/03 09:49:30;;;;;;;7.28;4.45;;;5.70;72.10;;;;;;5014232;28;20502;-58
2021/03/03 09:51:59;;;;;;;6.15;3.97;;;5.70;72.20;;;;;;5015150;28;20626;-57
2021/03/03 09:54:45;;;;;;;5.50;3.88;;;5.70;72.20;;;;;;5015069;28;20057;-58
2021/03/03 09:57:19;;;;;;;7.85;4.22;;;5.70;71.90;;;;;;5009771;28;20041;-58
2021/03/03 09:59:46;;;;;;;6.68;3.63;;;5.80;72.10;;;;;;5012078;28;20040;-58
2021/03/03 10:02:15;;;;;;;6.45;3.95;;;5.80;72.10;;;;;;5012010;28;20176;-57
2021/03/03 10:04:43;;;;;;;5.85;3.92;;;5.80;71.80;;;;;;5010383;28;20396;-57
2021/03/03 10:07:15;;;;;;;6.57;4.45;;;5.80;71.90;;;;;;5010923;28;20531;-58
2021/03/03 10:09:45;;;;;;;7.05;4.43;;;5.80;71.70;;;;;;5012902;28;20040;-58
2021/03/03 10:12:16;;;;;;;5.88;3.83;;;5.80;71.80;;;;;;5009246;28;20026;-58
2021/03/03 10:15:10;;;;;;;5.80;3.70;;;5.80;71.70;;;;;;5006935;28;20629;-56
2021/03/03 10:17:42;;;;;;;5.70;4.30;;;5.90;71.50;;;;;;5005876;28;20029;-59
2021/03/03 10:20:26;;;;;;;5.30;4.07;;;5.90;71.40;;;;;;5011072;28;20042;-59
2021/03/03 10:22:51;;;;;;;6.68;3.72;;;5.90;71.50;;;;;;5013702;28;20038;-59
2021/03/03 10:25:34;;;;;;;5.75;3.83;;;5.90;71.30;;;;;;5011123;28;20036;-59
2021/03/03 10:28:03;;;;;;;5.95;4.05;;;5.90;71.10;;;;;;5012300;28;20038;-58
2021/03/03 10:30:31;;;;;;;4.85;3.90;;;5.90;71.40;;;;;;5013261;28;20029;-58
2021/03/03 10:32:56;;;;;;;5.13;3.45;;;5.90;71.20;;;;;;5016653;28;20112;-58
2021/03/03 10:35:23;;;;;;;5.55;4.32;;;6.00;71.30;;;;;;5005482;28;20030;-58
2021/03/03 10:37:50;;;;;;;5.15;3.50;;;6.00;71.00;;;;;;5014460;28;20037;-59
2021/03/03 10:40:18;;;;;;;5.10;3.63;;;6.00;70.90;;;;;;5014755;28;20033;-57
2021/03/03 10:42:45;;;;;;;5.90;4.20;;;6.00;70.90;;;;;;5014009;28;20044;-58
2021/03/03 10:45:22;;;;;;;5.63;3.40;;;6.00;70.80;;;;;;5019736;28;20030;-58
2021/03/03 10:47:49;;;;;;;6.25;3.97;;;6.10;70.60;;;;;;5008869;28;20505;-55
2021/03/03 10:50:17;;;;;;;6.57;3.85;;;6.10;70.50;;;;;;5013122;28;20116;-58
2021/03/03 10:52:57;;;;;;;6.82;3.75;;;6.10;70.50;;;;;;5021292;28;20029;-55
2021/03/03 10:55:25;;;;;;;6.00;3.80;;;6.10;70.50;;;;;;5006773;28;20033;-58
2021/03/03 10:58:01;;;;;;;7.65;4.25;;;6.10;70.50;;;;;;5013101;28;20044;-58
2021/03/03 11:00:26;;;;;;;6.10;3.65;;;6.10;70.50;;;;;;5017465;28;20302;-57
2021/03/03 11:02:59;;;;;;;4.60;3.80;;;6.10;70.50;;;;;;5019507;28;20028;-56
2021/03/03 11:05:25;;;;;;;4.70;3.85;;;6.20;70.50;;;;;;5019308;28;20037;-57
2021/03/03 11:07:51;;;;;;;7.95;3.80;;;6.20;70.30;;;;;;5017480;28;20033;-58
2021/03/03 11:10:17;;;;;;;5.10;3.90;;;6.20;70.40;;;;;;5019081;28;20029;-58
2021/03/03 11:12:42;;;;;;;5.63;3.65;;;6.20;70.20;;;;;;5014592;28;20029;-58
2021/03/03 11:15:09;;;;;;;6.72;4.22;;;6.30;70.20;;;;;;5024900;28;20021;-56
2021/03/03 11:17:35;;;;;;;5.13;4.03;;;6.30;70.20;;;;;;5019714;28;20473;-56
2021/03/03 11:20:00;;;;;;;4.88;3.72;;;6.30;70.10;;;;;;5021382;28;20022;-57
2021/03/03 11:22:26;;;;;;;6.82;4.10;;;6.30;70.10;;;;;;5017139;28;20425;-56
2021/03/03 11:24:52;;;;;;;5.55;3.38;;;6.30;70.70;;;;;;5025310;28;20063;-57
2021/03/03 11:27:17;;;;;;;6.03;3.85;;;6.30;69.80;;;;;;5008524;28;20041;-58
2021/03/03 11:29:43;;;;;;;5.93;3.65;;;6.40;69.90;;;;;;5016551;28;20682;-57
2021/03/03 11:32:09;;;;;;;4.80;3.30;;;6.40;69.80;;;;;;5017220;28;20057;-58
2021/03/03 11:34:34;;;;;;;5.07;3.45;;;6.40;69.70;;;;;;5017842;28;20022;-57
2021/03/03 11:37:00;;;;;;;4.38;3.35;;;6.40;69.80;;;;;;5020456;28;20033;-58
2021/03/03 11:39:26;;;;;;;6.25;3.40;;;6.40;69.60;;;;;;5009509;28;20734;-58
2021/03/03 11:41:52;;;;;;;4.55;3.60;;;6.40;69.70;;;;;;5011306;28;20025;-57
2021/03/03 11:44:17;;;;;;;4.60;3.55;;;6.40;69.70;;;;;;5008856;28;20030;-57
2021/03/03 11:46:44;;;;;;;5.40;3.50;;;6.50;69.50;;;;;;5006673;28;20040;-57
2021/03/03 11:49:10;;;;;;;4.22;3.55;;;6.40;69.50;;;;;;5011175;28;20054;-57
2021/03/03 11:51:36;;;;;;;5.25;3.42;;;6.50;69.50;;;;;;5008463;28;20470;-57
2021/03/03 11:54:01;;;;;;;5.30;3.28;;;6.50;69.40;;;;;;5013177;28;20033;-57
2021/03/03 11:56:27;;;;;;;5.50;3.40;;;6.50;69.40;;;;;;5009291;28;20042;-57
2021/03/03 11:58:53;;;;;;;5.38;3.67;;;6.60;69.10;;;;;;5004823;28;20037;-57
2021/03/03 12:01:18;;;;;;;4.70;3.55;;;6.60;68.80;;;;;;5011715;28;20542;-55
2021/03/03 12:03:44;;;;;;;5.38;3.40;;;6.60;68.90;;;;;;5012546;28;20794;-56
2021/03/03 12:06:10;;;;;;;4.28;3.55;;;6.60;68.90;;;;;;5000921;28;20041;-57
2021/03/03 12:08:36;;;;;;;5.78;3.72;;;6.60;68.70;;;;;;4997449;28;20059;-57
2021/03/03 12:11:01;;;;;;;5.38;4.20;;;6.70;68.60;;;;;;5008145;28;20036;-57
2021/03/03 12:13:27;;;;;;;7.88;4.93;;;6.70;68.50;;;;;;5008933;28;20508;-55
2021/03/03 12:15:53;;;;;;;6.03;4.45;;;6.70;68.20;;;;;;5006941;28;20053;-57
2021/03/03 12:18:18;;;;;;;6.22;4.32;;;6.70;68.10;;;;;;5010540;28;20028;-56
2021/03/03 12:20:44;;;;;;;6.97;5.13;;;6.70;68.00;;;;;;5009140;28;20034;-57
2021/03/03 12:23:10;;;;;;;6.78;5.05;;;6.80;68.00;;;;;;5011154;28;20041;-56
2021/03/03 12:25:36;;;;;;;6.53;4.80;;;6.80;67.80;;;;;;5010543;28;20125;-57
2021/03/03 12:28:02;;;;;;;8.23;4.53;;;6.80;67.80;;;;;;5004260;28;20438;-54
2021/03/03 12:30:28;;;;;;;8.65;4.88;;;6.90;67.50;;;;;;5008797;28;20049;-55
2021/03/03 12:32:54;;;;;;;7.65;4.50;;;6.90;67.30;;;;;;5008869;28;20069;-57
2021/03/03 12:35:20;;;;;;;6.05;4.30;;;7.00;66.90;;;;;;5006281;28;20783;-57
2021/03/03 12:37:46;;;;;;;7.57;5.07;;;7.00;66.80;;;;;;5008756;28;20022;-55
2021/03/03 12:40:12;;;;;;;8.23;5.53;;;7.00;66.60;;;;;;5014643;28;20026;-57
2021/03/03 12:42:38;;;;;;;7.47;4.93;;;7.10;66.80;;;;;;5012134;28;20057;-57
2021/03/03 12:45:05;;;;;;;6.63;4.90;;;7.10;66.30;;;;;;5011950;28;20035;-57
2021/03/03 12:47:31;;;;;;;7.38;5.00;;;7.20;66.20;;;;;;5001320;28;20797;-58
2021/03/03 12:49:56;;;;;;;6.97;4.88;;;7.10;65.90;;;;;;5006633;28;20053;-56
2021/03/03 12:52:22;;;;;;;5.97;4.53;;;7.20;65.60;;;;;;5004789;28;20033;-53
2021/03/03 12:54:48;;;;;;;6.60;4.43;;;7.20;65.40;;;;;;5013569;28;20472;-58
2021/03/03 12:57:13;;;;;;;6.88;4.45;;;7.20;65.30;;;;;;5017601;28;20056;-56
2021/03/03 12:59:39;;;;;;;6.22;4.80;;;7.20;65.30;;;;;;5020778;28;20480;-55
2021/03/03 13:02:05;;;;;;;6.68;5.07;;;7.20;65.20;;;;;;5020366;28;20433;-55